createdAt,value
2019-01-24T00:00:14.673Z,94.13
2019-01-24T00:01:24.613Z,93.94
2019-01-24T00:02:34.039Z,94.13
2019-01-24T00:03:43.963Z,93.47
2019-01-24T00:04:53.639Z,93.37
2019-01-24T00:06:03.321Z,92.9
2019-01-24T00:07:13.018Z,93.56
2019-01-24T00:08:22.698Z,93.56
2019-01-24T00:09:32.421Z,93.94
2019-01-24T00:10:42.338Z,93.66
2019-01-24T00:11:52.037Z,94.32
2019-01-24T00:13:01.963Z,94.22
2019-01-24T00:14:11.911Z,93.94
2019-01-24T00:15:21.698Z,93.37
2019-01-24T00:16:31.634Z,94.03
2019-01-24T00:17:41.578Z,94.13
2019-01-24T00:18:51.510Z,94.03
2019-01-24T00:20:01.458Z,94.03
2019-01-24T00:21:11.144Z,94.03
2019-01-24T00:22:21.080Z,93.56
2019-01-24T00:23:31.011Z,93.47
2019-01-24T00:24:40.941Z,93.56
2019-01-24T00:25:50.879Z,93.94
2019-01-24T00:27:00.821Z,94.13
2019-01-24T00:28:10.768Z,93.09
2019-01-24T00:29:20.722Z,93.28
2019-01-24T00:30:30.685Z,93.94
2019-01-24T00:31:40.384Z,93.94
2019-01-24T00:32:50.343Z,93.56
2019-01-24T00:34:00.024Z,93.75
2019-01-24T00:35:09.952Z,94.13
2019-01-24T00:36:19.384Z,93.75
2019-01-24T00:37:29.060Z,94.03
2019-01-24T00:38:38.998Z,93.84
2019-01-24T00:39:48.929Z,93.94
2019-01-24T00:40:58.612Z,93.56
2019-01-24T00:42:08.285Z,93.09
2019-01-24T00:43:18.231Z,92.8
2019-01-24T00:44:28.168Z,93.56
2019-01-24T00:45:38.106Z,93.56
2019-01-24T00:46:47.780Z,93.09
2019-01-24T00:47:57.203Z,93.09
2019-01-24T00:49:07.142Z,93.18
2019-01-24T00:50:16.812Z,92.9
2019-01-24T00:51:26.488Z,93.56
2019-01-24T00:52:36.432Z,93.75
2019-01-24T00:53:46.373Z,93.37
2019-01-24T00:54:56.305Z,93.47
2019-01-24T00:56:05.740Z,93.37
2019-01-24T00:57:15.690Z,94.22
2019-01-24T00:58:25.372Z,93.47
2019-01-24T00:59:35.056Z,93.94
2019-01-24T01:00:44.760Z,93.47
2019-01-24T01:01:54.436Z,93.94
2019-01-24T01:03:04.101Z,93.09
2019-01-24T01:04:14.023Z,92.9
2019-01-24T01:05:23.684Z,93.28
2019-01-24T01:06:33.374Z,92.9
2019-01-24T01:07:43.310Z,93.28
2019-01-24T01:08:53.263Z,92.9
2019-01-24T01:10:02.529Z,93.56
2019-01-24T01:11:12.219Z,93.28
2019-01-24T01:12:22.151Z,93.66
2019-01-24T01:13:32.084Z,93.09
2019-01-24T01:14:41.770Z,93.28
2019-01-24T01:15:51.444Z,93.09
2019-01-24T01:17:01.380Z,93.09
2019-01-24T01:18:11.075Z,93.09
2019-01-24T01:19:21.027Z,93.28
2019-01-24T01:20:30.958Z,93.37
2019-01-24T01:21:40.632Z,93.56
2019-01-24T01:22:50.320Z,93.18
2019-01-24T01:24:00.255Z,93.94
2019-01-24T01:25:10.188Z,93.18
2019-01-24T01:26:19.614Z,93.37
2019-01-24T01:27:29.530Z,93.28
2019-01-24T01:28:39.212Z,93.56
2019-01-24T01:29:49.142Z,93.56
2019-01-24T01:30:58.820Z,93.47
2019-01-24T01:32:08.756Z,93.94
2019-01-24T01:33:18.698Z,94.03
2019-01-24T01:34:28.383Z,93.94
2019-01-24T01:35:43.703Z,93.66
2019-01-24T01:36:53.132Z,94.03
2019-01-24T01:38:02.802Z,93.84
2019-01-24T01:39:12.490Z,93.75
2019-01-24T01:40:22.423Z,93.56
2019-01-24T01:41:31.848Z,94.13
2019-01-24T01:42:41.789Z,92.8
2019-01-24T01:43:51.722Z,93.28
2019-01-24T01:45:01.143Z,93.56
2019-01-24T01:46:10.812Z,93.28
2019-01-24T01:47:20.503Z,92.61
2019-01-24T01:48:30.424Z,92.33
2019-01-24T01:49:40.353Z,92.9
2019-01-24T01:50:50.278Z,93.66
2019-01-24T01:52:00.198Z,93.09
2019-01-24T01:53:09.876Z,92.99
2019-01-24T01:54:19.810Z,93.56
2019-01-24T01:55:29.501Z,93.37
2019-01-24T01:56:38.928Z,93.18
2019-01-24T01:57:48.876Z,93.84
2019-01-24T01:58:58.802Z,93.47
2019-01-24T02:00:08.236Z,92.8
2019-01-24T02:01:18.167Z,93.18
2019-01-24T02:02:27.583Z,93.28
2019-01-24T02:03:37.266Z,93.09
2019-01-24T02:04:47.235Z,92.8
2019-01-24T02:05:57.171Z,92.9
2019-01-24T02:07:07.095Z,92.99
2019-01-24T02:08:17.032Z,92.9
2019-01-24T02:09:26.709Z,93.28
2019-01-24T02:10:36.635Z,93.18
2019-01-24T02:11:45.822Z,93.09
2019-01-24T02:12:55.260Z,93.28
2019-01-24T02:14:04.709Z,93.09
2019-01-24T02:15:14.648Z,93.09
2019-01-24T02:16:24.600Z,93.09
2019-01-24T02:17:34.528Z,93.28
2019-01-24T02:18:44.479Z,93.28
2019-01-24T02:19:54.159Z,92.9
2019-01-24T02:21:04.110Z,93.18
2019-01-24T02:22:13.789Z,93.47
2019-01-24T02:23:23.725Z,93.09
2019-01-24T02:24:33.178Z,92.99
2019-01-24T02:25:42.603Z,92.9
2019-01-24T02:26:52.036Z,93.18
2019-01-24T02:28:01.716Z,93.75
2019-01-24T02:29:11.659Z,93.94
2019-01-24T02:30:21.593Z,94.22
2019-01-24T02:31:31.299Z,94.22
2019-01-24T02:32:41.252Z,93.47
2019-01-24T02:33:51.220Z,93.28
2019-01-24T02:35:00.927Z,93.28
2019-01-24T02:36:10.877Z,92.8
2019-01-24T02:37:20.827Z,93.47
2019-01-24T02:38:30.761Z,93.37
2019-01-24T02:39:40.198Z,93.75
2019-01-24T02:40:50.142Z,93.37
2019-01-24T02:42:00.089Z,93.56
2019-01-24T02:43:10.044Z,93.75
2019-01-24T02:44:19.734Z,93.75
2019-01-24T02:45:29.426Z,94.03
2019-01-24T02:46:39.357Z,93.56
2019-01-24T02:47:49.065Z,94.03
2019-01-24T02:48:58.738Z,93.94
2019-01-24T02:50:08.436Z,94.79
2019-01-24T02:51:17.882Z,94.13
2019-01-24T02:52:27.845Z,94.03
2019-01-24T02:53:37.529Z,94.13
2019-01-24T02:54:47.227Z,94.13
2019-01-24T02:55:56.933Z,94.32
2019-01-24T02:57:07.087Z,94.22
2019-01-24T02:58:17.038Z,94.03
2019-01-24T02:59:26.973Z,94.22
2019-01-24T03:00:36.904Z,94.7
2019-01-24T03:01:46.839Z,94.79
2019-01-24T03:02:56.513Z,94.41
2019-01-24T03:04:06.185Z,94.03
2019-01-24T03:05:15.851Z,94.51
2019-01-24T03:06:25.545Z,94.79
2019-01-24T03:07:35.234Z,94.7
2019-01-24T03:08:44.938Z,93.94
2019-01-24T03:09:54.904Z,94.03
2019-01-24T03:11:04.643Z,93.94
2019-01-24T03:12:14.594Z,94.22
2019-01-24T03:13:24.529Z,93.94
2019-01-24T03:14:34.469Z,93.84
2019-01-24T03:15:43.936Z,94.13
2019-01-24T03:16:53.883Z,94.13
2019-01-24T03:18:03.567Z,94.7
2019-01-24T03:19:13.255Z,94.79
2019-01-24T03:20:22.943Z,94.7
2019-01-24T03:21:32.875Z,94.6
2019-01-24T03:22:42.554Z,94.13
2019-01-24T03:23:52.239Z,94.89
2019-01-24T03:25:02.173Z,94.03
2019-01-24T03:26:11.883Z,94.13
2019-01-24T03:27:21.566Z,94.89
2019-01-24T03:28:31.256Z,94.98
2019-01-24T03:29:41.645Z,94.51
2019-01-24T03:30:51.078Z,94.6
2019-01-24T03:32:01.090Z,94.98
2019-01-24T03:33:10.811Z,94.03
2019-01-24T03:34:20.513Z,93.94
2019-01-24T03:35:30.451Z,93.94
2019-01-24T03:36:39.885Z,93.84
2019-01-24T03:37:49.855Z,93.94
2019-01-24T03:38:59.552Z,93.56
2019-01-24T03:40:09.251Z,93.75
2019-01-24T03:41:19.207Z,93.75
2019-01-24T03:42:29.150Z,93.94
2019-01-24T03:43:38.835Z,94.13
2019-01-24T03:44:48.758Z,93.75
2019-01-24T03:45:58.710Z,93.94
2019-01-24T03:47:08.659Z,93.84
2019-01-24T03:48:18.597Z,94.03
2019-01-24T03:49:28.279Z,94.13
2019-01-24T03:50:37.722Z,94.03
2019-01-24T03:51:47.669Z,94.22
2019-01-24T03:52:57.097Z,94.51
2019-01-24T03:54:07.029Z,95.07
2019-01-24T03:55:16.717Z,94.03
2019-01-24T03:56:26.400Z,94.03
2019-01-24T03:57:36.092Z,94.03
2019-01-24T03:58:46.020Z,94.13
2019-01-24T03:59:55.951Z,93.28
2019-01-24T04:01:05.636Z,93.18
2019-01-24T04:02:15.567Z,92.9
2019-01-24T04:03:25.491Z,93.94
2019-01-24T04:04:35.179Z,93.18
2019-01-24T04:05:44.855Z,93.28
2019-01-24T04:06:54.276Z,93.09
2019-01-24T04:08:03.971Z,93.37
2019-01-24T04:09:13.902Z,93.28
2019-01-24T04:10:23.589Z,93.09
2019-01-24T04:11:33.289Z,93.28
2019-01-24T04:12:43.222Z,93.56
2019-01-24T04:13:52.671Z,93.94
2019-01-24T04:15:02.381Z,93.94
2019-01-24T04:16:12.671Z,94.98
2019-01-24T04:17:22.621Z,95.17
2019-01-24T04:18:32.329Z,94.89
2019-01-24T04:19:42.253Z,93.94
2019-01-24T04:20:51.938Z,94.79
2019-01-24T04:22:01.876Z,94.79
2019-01-24T04:23:11.835Z,94.51
2019-01-24T04:24:21.778Z,94.98
2019-01-24T04:25:31.213Z,94.7
2019-01-24T04:26:40.887Z,94.89
2019-01-24T04:27:50.840Z,94.98
2019-01-24T04:29:00.817Z,95.17
2019-01-24T04:30:10.773Z,95.07
2019-01-24T04:31:20.706Z,94.89
2019-01-24T04:32:30.397Z,94.6
2019-01-24T04:33:40.101Z,95.17
2019-01-24T04:34:50.068Z,95.54
2019-01-24T04:35:59.999Z,95.45
2019-01-24T04:37:09.933Z,95.26
2019-01-24T04:38:19.898Z,94.79
2019-01-24T04:39:29.331Z,95.07
2019-01-24T04:40:39.277Z,94.51
2019-01-24T04:41:49.231Z,94.7
2019-01-24T04:42:58.450Z,94.79
2019-01-24T04:44:08.136Z,94.98
2019-01-24T04:45:18.093Z,94.7
2019-01-24T04:46:28.025Z,94.79
2019-01-24T04:47:37.729Z,94.98
2019-01-24T04:48:47.667Z,94.79
2019-01-24T04:49:57.108Z,94.98
2019-01-24T04:51:06.811Z,94.7
2019-01-24T04:52:16.757Z,94.6
2019-01-24T04:53:26.175Z,94.79
2019-01-24T04:54:35.894Z,94.79
2019-01-24T04:55:45.593Z,94.51
2019-01-24T04:56:55.523Z,94.79
2019-01-24T04:58:04.948Z,94.41
2019-01-24T04:59:14.643Z,94.79
2019-01-24T05:00:24.335Z,94.51
2019-01-24T05:01:34.280Z,94.79
2019-01-24T05:02:43.708Z,93.94
2019-01-24T05:03:53.391Z,93.66
2019-01-24T05:05:03.333Z,94.41
2019-01-24T05:06:13.287Z,94.51
2019-01-24T05:07:22.964Z,94.22
2019-01-24T05:08:32.909Z,94.51
2019-01-24T05:09:42.849Z,95.26
2019-01-24T05:10:52.331Z,94.51
2019-01-24T05:12:02.027Z,93.84
2019-01-24T05:13:11.967Z,93.75
2019-01-24T05:14:21.427Z,94.32
2019-01-24T05:15:31.367Z,94.51
2019-01-24T05:16:41.065Z,94.7
2019-01-24T05:17:50.988Z,94.41
2019-01-24T05:19:00.928Z,94.79
2019-01-24T05:20:10.868Z,94.51
2019-01-24T05:21:20.805Z,94.03
2019-01-24T05:22:30.734Z,94.22
2019-01-24T05:23:40.416Z,94.98
2019-01-24T05:24:50.099Z,94.7
2019-01-24T05:25:59.546Z,94.03
2019-01-24T05:27:09.504Z,93.18
2019-01-24T05:28:18.974Z,93.28
2019-01-24T05:29:28.900Z,93.37
2019-01-24T05:30:38.347Z,92.9
2019-01-24T05:31:48.023Z,93.18
2019-01-24T05:32:57.971Z,93.47
2019-01-24T05:34:07.916Z,92.9
2019-01-24T05:35:17.357Z,92.99
2019-01-24T05:36:27.078Z,92.8
2019-01-24T05:37:36.760Z,92.52
2019-01-24T05:38:46.440Z,92.61
2019-01-24T05:39:56.128Z,93.28
2019-01-24T05:41:05.836Z,92.8
2019-01-24T05:42:15.767Z,92.24
2019-01-24T05:43:25.453Z,91.58
2019-01-24T05:44:35.410Z,91.77
2019-01-24T05:45:45.346Z,91.58
2019-01-24T05:46:55.058Z,91.49
2019-01-24T05:48:04.983Z,91.39
2019-01-24T05:49:14.664Z,91.86
2019-01-24T05:50:24.633Z,91.58
2019-01-24T05:51:34.569Z,90.92
2019-01-24T05:52:44.266Z,91.3
2019-01-24T05:53:54.196Z,91.39
2019-01-24T05:55:04.129Z,91.49
2019-01-24T05:56:13.569Z,91.2
2019-01-24T05:57:22.747Z,91.96
2019-01-24T05:58:32.419Z,91.39
2019-01-24T05:59:42.367Z,91.72
2019-01-24T06:00:52.048Z,91.91
2019-01-24T06:02:01.976Z,91.53
2019-01-24T06:03:11.427Z,91.58
2019-01-24T06:04:21.360Z,91.82
2019-01-24T06:05:31.302Z,92
2019-01-24T06:06:46.884Z,91.72
2019-01-24T06:07:56.562Z,91.63
2019-01-24T06:09:05.990Z,91.72
2019-01-24T06:10:15.418Z,91.53
2019-01-24T06:11:24.853Z,91.82
2019-01-24T06:12:34.808Z,91.91
2019-01-24T06:13:44.509Z,91.44
2019-01-24T06:14:54.439Z,91.72
2019-01-24T06:16:04.363Z,91.63
2019-01-24T06:17:14.306Z,91.96
2019-01-24T06:18:23.984Z,91.96
2019-01-24T06:19:33.930Z,91.96
2019-01-24T06:20:43.626Z,92.05
2019-01-24T06:21:53.318Z,92.1
2019-01-24T06:23:03.268Z,91.63
2019-01-24T06:24:14.141Z,91.91
2019-01-24T06:25:24.083Z,91.86
2019-01-24T06:26:34.040Z,92.33
2019-01-24T06:27:43.729Z,92.43
2019-01-24T06:28:53.422Z,92.8
2019-01-24T06:30:05.851Z,93.09
2019-01-24T06:31:15.802Z,93.18
2019-01-24T06:32:25.741Z,92.61
2019-01-24T06:33:35.682Z,91.96
2019-01-24T06:34:45.639Z,91.91
2019-01-24T06:35:55.580Z,92.85
2019-01-24T06:37:05.279Z,92.85
2019-01-24T06:38:15.240Z,93.28
2019-01-24T06:39:24.928Z,92.85
2019-01-24T06:40:34.866Z,92.85
2019-01-24T06:41:44.283Z,93.09
2019-01-24T06:42:54.214Z,92.9
2019-01-24T06:44:03.644Z,93.28
2019-01-24T06:45:13.565Z,93.37
2019-01-24T06:46:23.263Z,93.47
2019-01-24T06:47:32.684Z,93.47
2019-01-24T06:48:42.434Z,93.56
2019-01-24T06:49:51.875Z,94.13
2019-01-24T06:51:01.607Z,94.51
2019-01-24T06:52:11.530Z,94.51
2019-01-24T06:53:20.993Z,93.56
2019-01-24T06:54:30.680Z,93.09
2019-01-24T06:55:40.606Z,93.47
2019-01-24T06:56:50.529Z,93.18
2019-01-24T06:57:59.956Z,92.52
2019-01-24T06:59:09.877Z,92.8
2019-01-24T07:00:19.324Z,93.18
2019-01-24T07:01:29.268Z,93.56
2019-01-24T07:02:39.229Z,93.47
2019-01-24T07:03:49.422Z,93.28
2019-01-24T07:04:59.349Z,93.47
2019-01-24T07:06:09.042Z,93.94
2019-01-24T07:07:19.318Z,93.09
2019-01-24T07:08:29.001Z,94.13
2019-01-24T07:09:38.699Z,93.84
2019-01-24T07:10:48.642Z,92.71
2019-01-24T07:11:58.596Z,92.9
2019-01-24T07:13:08.532Z,92.8
2019-01-24T07:14:18.478Z,92.24
2019-01-24T07:15:28.429Z,92.24
2019-01-24T07:16:38.384Z,92.24
2019-01-24T07:17:48.085Z,92.33
2019-01-24T07:18:58.030Z,92.43
2019-01-24T07:20:07.976Z,92.14
2019-01-24T07:21:17.668Z,91.77
2019-01-24T07:22:27.356Z,91.01
2019-01-24T07:23:37.058Z,91.49
2019-01-24T07:24:47.018Z,92.14
2019-01-24T07:25:56.706Z,92.8
2019-01-24T07:27:06.404Z,92.14
2019-01-24T07:28:16.097Z,92.14
2019-01-24T07:29:25.606Z,90.92
2019-01-24T07:30:35.563Z,90.73
2019-01-24T07:31:45.021Z,91.11
2019-01-24T07:32:54.972Z,90.97
2019-01-24T07:34:04.982Z,91.06
2019-01-24T07:35:14.938Z,90.97
2019-01-24T07:36:24.884Z,90.97
2019-01-24T07:37:34.834Z,91.11
2019-01-24T07:38:44.532Z,91.44
2019-01-24T07:39:54.005Z,91.25
2019-01-24T07:41:03.736Z,90.92
2019-01-24T07:42:13.471Z,91.82
2019-01-24T07:43:23.405Z,91.58
2019-01-24T07:44:33.363Z,91.53
2019-01-24T07:45:43.312Z,91.77
2019-01-24T07:46:53.248Z,91.86
2019-01-24T07:48:03.220Z,91.58
2019-01-24T07:49:13.176Z,91.72
2019-01-24T07:50:23.404Z,91.82
2019-01-24T07:51:33.168Z,91.91
2019-01-24T07:52:43.123Z,92.19
2019-01-24T07:53:53.054Z,91.82
2019-01-24T07:55:02.990Z,92
2019-01-24T07:56:13.721Z,92.61
2019-01-24T07:57:23.164Z,91.96
2019-01-24T07:58:33.346Z,92.43
2019-01-24T07:59:43.302Z,92.14
2019-01-24T08:00:52.746Z,92.52
2019-01-24T08:02:02.702Z,94.32
2019-01-24T08:03:12.663Z,94.32
2019-01-24T08:04:22.094Z,93.84
2019-01-24T08:05:31.860Z,93.28
2019-01-24T08:06:43.198Z,93.28
2019-01-24T08:07:53.189Z,93.28
2019-01-24T08:09:02.651Z,94.03
2019-01-24T08:10:12.619Z,93.09
2019-01-24T08:11:22.330Z,92.8
2019-01-24T08:12:31.793Z,93.18
2019-01-24T08:13:41.807Z,93.56
2019-01-24T08:14:51.840Z,94.13
2019-01-24T08:16:02.027Z,93.37
2019-01-24T08:17:11.728Z,93.28
2019-01-24T08:18:21.450Z,92.71
2019-01-24T08:19:31.141Z,92.99
2019-01-24T08:20:40.958Z,92.61
2019-01-24T08:21:51.714Z,91.86
2019-01-24T08:23:02.035Z,92.24
2019-01-24T08:24:11.782Z,92.99
2019-01-24T08:25:21.902Z,92.99
2019-01-24T08:26:31.582Z,93.18
2019-01-24T08:27:41.519Z,92.33
2019-01-24T08:28:51.490Z,91.77
2019-01-24T08:30:01.438Z,92.05
2019-01-24T08:31:11.396Z,91.67
2019-01-24T08:32:21.088Z,92.24
2019-01-24T08:33:31.016Z,91.77
2019-01-24T08:34:40.742Z,91.96
2019-01-24T08:35:50.561Z,92.14
2019-01-24T08:37:00.286Z,91.96
2019-01-24T08:38:10.281Z,92.14
2019-01-24T08:39:20.000Z,91.11
2019-01-24T08:40:29.695Z,91.86
2019-01-24T08:41:39.646Z,91.39
2019-01-24T08:42:49.589Z,91.77
2019-01-24T08:43:59.524Z,91.01
2019-01-24T08:45:09.204Z,91.2
2019-01-24T08:46:18.888Z,91.01
2019-01-24T08:47:28.908Z,90.92
2019-01-24T08:48:38.595Z,91.67
2019-01-24T08:49:48.320Z,92.05
2019-01-24T08:50:58.002Z,91.67
2019-01-24T08:52:07.953Z,91.67
2019-01-24T08:53:17.890Z,92.24
2019-01-24T08:54:27.576Z,92.14
2019-01-24T08:55:37.505Z,91.2
2019-01-24T08:56:47.464Z,90.82
2019-01-24T08:57:57.164Z,90.64
2019-01-24T08:59:06.850Z,91.11
2019-01-24T09:00:16.807Z,90.92
2019-01-24T09:01:26.758Z,91.2
2019-01-24T09:02:36.458Z,91.2
2019-01-24T09:03:46.194Z,90.64
2019-01-24T09:04:56.171Z,91.11
2019-01-24T09:06:06.159Z,91.11
2019-01-24T09:07:16.104Z,90.82
2019-01-24T09:08:26.098Z,91.2
2019-01-24T09:09:36.046Z,92.05
2019-01-24T09:10:45.997Z,91.11
2019-01-24T09:11:55.476Z,90.35
2019-01-24T09:13:05.171Z,90.26
2019-01-24T09:14:14.648Z,89.78
2019-01-24T09:15:24.109Z,89.4
2019-01-24T09:16:34.536Z,89.88
2019-01-24T09:17:44.265Z,90.45
2019-01-24T09:18:54.284Z,90.92
2019-01-24T09:20:03.740Z,91.11
2019-01-24T09:21:13.188Z,90.45
2019-01-24T09:22:22.926Z,90.73
2019-01-24T09:23:32.365Z,91.01
2019-01-24T09:24:42.326Z,91.86
2019-01-24T09:25:52.268Z,90.54
2019-01-24T09:27:01.960Z,90.73
2019-01-24T09:28:17.418Z,91.2
2019-01-24T09:29:27.371Z,90.82
2019-01-24T09:30:37.328Z,90.45
2019-01-24T09:31:47.296Z,90.07
2019-01-24T09:32:57.256Z,89.78
2019-01-24T09:34:07.196Z,90.26
2019-01-24T09:35:17.154Z,90.35
2019-01-24T09:36:31.406Z,89.78
2019-01-24T09:37:41.365Z,90.07
2019-01-24T09:38:51.330Z,90.73
2019-01-24T09:40:01.295Z,90.73
2019-01-24T09:41:11.288Z,89.97
2019-01-24T09:42:21.222Z,89.69
2019-01-24T09:43:31.169Z,89.5
2019-01-24T09:44:41.106Z,89.31
2019-01-24T09:45:50.819Z,89.88
2019-01-24T09:47:00.508Z,89.59
2019-01-24T09:48:10.483Z,88.84
2019-01-24T09:49:20.190Z,88.65
2019-01-24T09:50:30.148Z,88.75
2019-01-24T09:51:40.085Z,88.93
2019-01-24T09:52:49.790Z,89.12
2019-01-24T09:53:59.758Z,89.12
2019-01-24T09:55:09.450Z,90.07
2019-01-24T09:56:19.417Z,89.69
2019-01-24T09:57:29.137Z,89.5
2019-01-24T09:58:39.109Z,89.5
2019-01-24T09:59:48.816Z,89.4
2019-01-24T10:00:58.768Z,89.22
2019-01-24T10:02:08.700Z,89.88
2019-01-24T10:03:18.450Z,89.4
2019-01-24T10:04:28.410Z,88.93
2019-01-24T10:05:38.354Z,89.4
2019-01-24T10:06:48.059Z,89.78
2019-01-24T10:07:58.024Z,89.78
2019-01-24T10:09:07.724Z,88.93
2019-01-24T10:10:17.248Z,88.28
2019-01-24T10:11:26.945Z,89.22
2019-01-24T10:12:36.638Z,90.45
2019-01-24T10:13:46.629Z,89.69
2019-01-24T10:14:56.351Z,89.22
2019-01-24T10:16:06.086Z,89.4
2019-01-24T10:17:16.051Z,88.93
2019-01-24T10:18:26.014Z,88.46
2019-01-24T10:19:35.473Z,88.46
2019-01-24T10:20:45.157Z,88.37
2019-01-24T10:21:54.834Z,88.46
2019-01-24T10:23:04.812Z,88.46
2019-01-24T10:24:14.758Z,88.18
2019-01-24T10:25:24.702Z,87.71
2019-01-24T10:26:34.395Z,88.09
2019-01-24T10:27:44.363Z,88.09
2019-01-24T10:28:54.060Z,88.75
2019-01-24T10:30:04.016Z,89.22
2019-01-24T10:31:13.965Z,88.65
2019-01-24T10:32:23.651Z,88.28
2019-01-24T10:33:33.350Z,88.37
2019-01-24T10:34:42.802Z,88.46
2019-01-24T10:35:54.533Z,87.71
2019-01-24T10:37:04.487Z,88.09
2019-01-24T10:38:14.420Z,87.62
2019-01-24T10:39:24.121Z,87.9
2019-01-24T10:40:34.078Z,88.37
2019-01-24T10:41:44.043Z,88.93
2019-01-24T10:42:54.011Z,88.93
2019-01-24T10:44:03.950Z,88.93
2019-01-24T10:45:13.643Z,89.5
2019-01-24T10:46:23.605Z,90.26
2019-01-24T10:47:33.561Z,89.78
2019-01-24T10:48:43.054Z,90.07
2019-01-24T10:49:53.002Z,89.97
2019-01-24T10:51:02.700Z,89.88
2019-01-24T10:52:12.410Z,89.97
2019-01-24T10:53:21.627Z,90.64
2019-01-24T10:54:31.574Z,91.11
2019-01-24T10:55:41.520Z,90.35
2019-01-24T10:56:51.233Z,89.4
2019-01-24T10:58:01.287Z,89.4
2019-01-24T10:59:10.982Z,89.88
2019-01-24T11:00:20.925Z,90.35
2019-01-24T11:01:30.885Z,90.73
2019-01-24T11:02:40.838Z,90.64
2019-01-24T11:03:50.576Z,90.35
2019-01-24T11:05:00.516Z,90.45
2019-01-24T11:06:10.479Z,90.54
2019-01-24T11:07:20.200Z,89.59
2019-01-24T11:08:29.910Z,90.45
2019-01-24T11:09:39.606Z,91.39
2019-01-24T11:10:49.302Z,92.05
2019-01-24T11:11:59.025Z,92.05
2019-01-24T11:13:08.741Z,91.58
2019-01-24T11:14:18.705Z,91.96
2019-01-24T11:15:28.135Z,92.24
2019-01-24T11:16:37.912Z,92.24
2019-01-24T11:17:47.595Z,91.58
2019-01-24T11:18:57.279Z,91.77
2019-01-24T11:20:07.240Z,91.77
2019-01-24T11:21:16.943Z,92.52
2019-01-24T11:22:26.922Z,92.14
2019-01-24T11:23:36.624Z,92.05
2019-01-24T11:24:46.586Z,92.43
2019-01-24T11:25:55.769Z,92.9
2019-01-24T11:27:05.714Z,93.28
2019-01-24T11:28:15.430Z,92.24
2019-01-24T11:29:25.374Z,91.77
2019-01-24T11:30:35.369Z,92.05
2019-01-24T11:31:45.339Z,92.71
2019-01-24T11:32:55.275Z,92.61
2019-01-24T11:34:05.216Z,92.43
2019-01-24T11:35:14.897Z,92.05
2019-01-24T11:36:24.845Z,92.43
2019-01-24T11:37:34.282Z,92.52
2019-01-24T11:38:44.219Z,92.33
2019-01-24T11:39:53.905Z,92.14
2019-01-24T11:41:03.846Z,92.24
2019-01-24T11:42:13.765Z,92.8
2019-01-24T11:43:23.288Z,92.14
2019-01-24T11:44:33.220Z,92.24
2019-01-24T11:45:43.800Z,92.61
2019-01-24T11:46:53.238Z,92.99
2019-01-24T11:48:03.169Z,92.8
2019-01-24T11:49:12.865Z,92.43
2019-01-24T11:50:22.568Z,92.8
2019-01-24T11:51:32.009Z,92.9
2019-01-24T11:52:41.734Z,94.13
2019-01-24T11:53:55.574Z,93.18
2019-01-24T11:55:05.513Z,92.9
2019-01-24T11:56:15.478Z,93.66
2019-01-24T11:57:25.170Z,94.79
2019-01-24T11:58:35.115Z,94.79
2019-01-24T11:59:45.085Z,93.94
2019-01-24T12:00:55.030Z,95.45
2019-01-24T12:02:04.703Z,95.45
2019-01-24T12:03:14.610Z,95.45
2019-01-24T12:04:24.562Z,95.17
2019-01-24T12:05:34.515Z,94.98
2019-01-24T12:06:44.211Z,95.26
2019-01-24T12:07:53.949Z,95.92
2019-01-24T12:09:03.915Z,95.73
2019-01-24T12:10:13.611Z,94.89
2019-01-24T12:11:23.307Z,94.98
2019-01-24T12:12:33.274Z,96.01
2019-01-24T12:13:43.243Z,95.83
2019-01-24T12:14:52.682Z,95.64
2019-01-24T12:16:02.637Z,95.45
2019-01-24T12:17:12.561Z,95.73
2019-01-24T12:18:22.370Z,96.63
2019-01-24T12:19:32.331Z,96.39
2019-01-24T12:20:42.266Z,97.15
2019-01-24T12:21:51.966Z,96.81
2019-01-24T12:23:01.679Z,97.29
2019-01-24T12:24:11.367Z,96.63
2019-01-24T12:25:21.079Z,96.06
2019-01-24T12:26:30.285Z,95.64
2019-01-24T12:27:40.239Z,95.4
2019-01-24T12:28:50.181Z,95.87
2019-01-24T12:30:00.167Z,96.63
2019-01-24T12:31:09.866Z,95.92
2019-01-24T12:32:19.559Z,95.5
2019-01-24T12:33:29.255Z,95.97
2019-01-24T12:34:39.194Z,96.63
2019-01-24T12:35:49.135Z,97.19
2019-01-24T12:36:58.818Z,96.34
2019-01-24T12:38:13.928Z,95.97
2019-01-24T12:39:23.847Z,95.78
2019-01-24T12:40:33.777Z,96.06
2019-01-24T12:41:42.967Z,96.15
2019-01-24T12:42:52.914Z,95.78
2019-01-24T12:44:02.863Z,95.45
2019-01-24T12:45:12.571Z,95.68
2019-01-24T12:46:22.507Z,95.17
2019-01-24T12:47:32.477Z,95.5
2019-01-24T12:48:41.914Z,95.78
2019-01-24T12:49:52.497Z,97.19
2019-01-24T12:51:02.458Z,97.19
2019-01-24T12:52:12.390Z,96.15
2019-01-24T12:53:21.843Z,96.44
2019-01-24T12:54:31.521Z,95.97
2019-01-24T12:55:41.264Z,96.34
2019-01-24T12:56:50.986Z,97.19
2019-01-24T12:58:00.689Z,96.06
2019-01-24T12:59:10.399Z,95.97
2019-01-24T13:00:20.386Z,95.64
2019-01-24T13:01:30.352Z,95.87
2019-01-24T13:02:40.316Z,95.03
2019-01-24T13:03:50.025Z,95.45
2019-01-24T13:04:59.983Z,95.45
2019-01-24T13:06:11.246Z,94.51
2019-01-24T13:07:21.027Z,94.7
2019-01-24T13:08:30.970Z,94.98
2019-01-24T13:09:40.648Z,93.84
2019-01-24T13:10:50.594Z,94.13
2019-01-24T13:12:00.554Z,94.13
2019-01-24T13:13:10.526Z,93.84
2019-01-24T13:14:20.203Z,93.84
2019-01-24T13:15:29.926Z,93.94
2019-01-24T13:16:39.885Z,93.75
2019-01-24T13:17:49.825Z,93.28
2019-01-24T13:18:59.773Z,94.32
2019-01-24T13:20:09.729Z,94.6
2019-01-24T13:21:19.405Z,94.32
2019-01-24T13:22:29.344Z,93.23
2019-01-24T13:23:39.298Z,93.18
2019-01-24T13:24:49.241Z,94.13
2019-01-24T13:25:59.188Z,94.03
2019-01-24T13:27:08.950Z,94.03
2019-01-24T13:28:18.896Z,94.13
2019-01-24T13:29:28.852Z,93.66
2019-01-24T13:30:38.801Z,93.84
2019-01-24T13:31:48.493Z,94.79
2019-01-24T13:32:58.469Z,93.94
2019-01-24T13:34:08.177Z,94.03
2019-01-24T13:35:18.118Z,93.94
2019-01-24T13:36:27.839Z,94.13
2019-01-24T13:37:37.762Z,94.51
2019-01-24T13:38:47.742Z,94.7
2019-01-24T13:39:57.686Z,95.17
2019-01-24T13:41:07.534Z,95.31
2019-01-24T13:42:17.276Z,95.54
2019-01-24T13:43:27.254Z,94.46
2019-01-24T13:44:36.956Z,94.98
2019-01-24T13:45:46.914Z,94.84
2019-01-24T13:46:56.888Z,95.59
2019-01-24T13:48:06.863Z,95.5
2019-01-24T13:49:16.799Z,95.26
2019-01-24T13:50:26.493Z,95.17
2019-01-24T13:51:36.178Z,94.74
2019-01-24T13:52:45.619Z,94.6
2019-01-24T13:53:55.579Z,94.51
2019-01-24T13:55:05.562Z,94.32
2019-01-24T13:56:15.007Z,94.08
2019-01-24T13:57:24.963Z,94.41
2019-01-24T13:58:34.403Z,95.73
2019-01-24T13:59:44.558Z,94.74
2019-01-24T14:00:53.990Z,94.03
2019-01-24T14:02:03.947Z,94.22
2019-01-24T14:03:13.889Z,95.36
2019-01-24T14:04:23.825Z,95.54
2019-01-24T14:05:33.787Z,95.54
2019-01-24T14:06:43.720Z,95.45
2019-01-24T14:07:53.668Z,94.51
2019-01-24T14:09:03.612Z,94.6
2019-01-24T14:10:13.573Z,95.17
2019-01-24T14:11:23.526Z,94.7
2019-01-24T14:12:33.451Z,93.75
2019-01-24T14:13:43.119Z,93.84
2019-01-24T14:14:53.068Z,94.27
2019-01-24T14:16:02.776Z,93.75
2019-01-24T14:17:12.489Z,93.94
2019-01-24T14:18:22.187Z,94.03
2019-01-24T14:19:32.105Z,94.03
2019-01-24T14:20:42.059Z,94.13
2019-01-24T14:21:51.586Z,94.22
2019-01-24T14:23:02.390Z,94.41
2019-01-24T14:24:12.321Z,94.79
2019-01-24T14:25:22.018Z,94.65
2019-01-24T14:26:31.712Z,94.46
2019-01-24T14:27:41.685Z,94.84
2019-01-24T14:28:51.633Z,95.78
2019-01-24T14:30:01.336Z,97.1
2019-01-24T14:31:11.034Z,96.77
2019-01-24T14:32:20.717Z,96.15
2019-01-24T14:33:30.627Z,95.4
2019-01-24T14:34:42.044Z,96.25
2019-01-24T14:35:51.989Z,95.92
2019-01-24T14:37:01.672Z,95.78
2019-01-24T14:38:11.639Z,96.39
2019-01-24T14:39:21.593Z,96.63
2019-01-24T14:40:31.554Z,96.49
2019-01-24T14:41:40.998Z,96.53
2019-01-24T14:42:50.948Z,97.15
2019-01-24T14:44:00.864Z,96.34
2019-01-24T14:45:10.798Z,96.81
2019-01-24T14:46:20.494Z,97.19
2019-01-24T14:47:30.434Z,97
2019-01-24T14:48:40.388Z,97.76
2019-01-24T14:49:50.074Z,98.04
2019-01-24T14:51:00.016Z,97.85
2019-01-24T14:52:09.754Z,97.57
2019-01-24T14:53:19.696Z,98.23
2019-01-24T14:54:29.865Z,98.61
2019-01-24T14:55:39.568Z,98.19
2019-01-24T14:56:49.502Z,98.04
2019-01-24T14:57:58.941Z,98.71
2019-01-24T14:59:08.893Z,98.8
2019-01-24T15:00:18.584Z,99.55
2019-01-24T15:01:28.536Z,99.74
2019-01-24T15:02:37.976Z,99.37